createdAt,value
2024-03-16T00:01:42.504Z,100286.22
2024-03-16T00:03:44.574Z,100286.78
2024-03-16T00:05:47.778Z,100292.50
2024-03-16T00:07:50.750Z,100284.91
2024-03-16T00:09:52.873Z,100295.09
2024-03-16T00:11:55.894Z,100304.50
2024-03-16T00:13:58.700Z,100295.84
2024-03-16T00:16:01.844Z,100289.97
2024-03-16T00:18:04.508Z,100286.94
2024-03-16T00:20:11.920Z,100287.69
2024-03-16T00:22:14.101Z,100288.75
2024-03-16T00:24:16.237Z,100291.69
2024-03-16T00:26:18.831Z,100295.66
2024-03-16T00:28:20.904Z,100293.22
2024-03-16T00:30:24.582Z,100287.28
2024-03-16T00:32:27.139Z,100296.44
2024-03-16T00:34:29.408Z,100299.59
2024-03-16T00:36:34.493Z,100290.97
2024-03-16T00:38:36.769Z,100289.31
2024-03-16T00:40:38.952Z,100295.19
2024-03-16T00:42:41.117Z,100290.78
2024-03-16T00:44:43.243Z,100291.88
2024-03-16T00:46:45.681Z,100296.91
2024-03-16T00:48:47.971Z,100293.06
2024-03-16T00:50:50.076Z,100291.91
2024-03-16T00:52:52.306Z,100293.22
2024-03-16T00:54:54.496Z,100280.25
2024-03-16T00:56:57.287Z,100284.25
2024-03-16T00:58:59.383Z,100285.31
2024-03-16T01:01:01.579Z,100281.56
2024-03-16T01:03:04.708Z,100275.13
2024-03-16T01:05:07.139Z,100265.19
2024-03-16T01:07:09.215Z,100271.63
2024-03-16T01:09:11.281Z,100266.25
2024-03-16T01:11:13.381Z,100259.72
2024-03-16T01:13:15.479Z,100259.72
2024-03-16T01:15:18.099Z,100256.47
2024-03-16T01:17:22.346Z,100251.34
2024-03-16T01:19:26.371Z,100255.88
2024-03-16T01:21:28.499Z,100257.19
2024-03-16T01:23:31.520Z,100255.81
2024-03-16T01:25:33.689Z,100255.88
2024-03-16T01:27:35.809Z,100256.38
2024-03-16T01:29:37.969Z,100256.38
2024-03-16T01:31:40.100Z,100250.66
2024-03-16T01:33:42.241Z,100250.44
2024-03-16T01:35:44.388Z,100250.91
2024-03-16T01:37:46.515Z,100248.22
2024-03-16T01:39:51.101Z,100250.09
2024-03-16T01:41:53.382Z,100248.22
2024-03-16T01:43:55.514Z,100247.66
2024-03-16T01:45:57.599Z,100250.34
2024-03-16T01:48:04.910Z,100246.81
2024-03-16T01:50:08.629Z,100252.44
2024-03-16T01:52:10.736Z,100244.38
2024-03-16T01:54:12.904Z,100250.00
2024-03-16T01:56:15.173Z,100257.00
2024-03-16T01:58:17.299Z,100248.38
2024-03-16T02:00:19.879Z,100257.25
2024-03-16T02:02:38.750Z,100252.34
2024-03-16T02:04:40.862Z,100257.97
2024-03-16T02:06:49.981Z,100245.59
2024-03-16T02:08:55.137Z,100250.72
2024-03-16T02:10:57.489Z,100250.72
2024-03-16T02:12:59.857Z,100246.50
2024-03-16T02:15:02.118Z,100249.66
2024-03-16T02:17:05.858Z,100246.41
2024-03-16T02:19:08.651Z,100236.13
2024-03-16T02:21:11.374Z,100247.13
2024-03-16T02:23:13.462Z,100238.72
2024-03-16T02:25:16.132Z,100244.00
2024-03-16T02:27:18.421Z,100244.00
2024-03-16T02:29:20.528Z,100241.53
2024-03-16T02:31:22.721Z,100240.72
2024-03-16T02:33:24.926Z,100249.38
2024-03-16T02:35:28.109Z,100247.53
2024-03-16T02:37:30.209Z,100235.47
2024-03-16T02:39:33.235Z,100243.78
2024-03-16T02:41:35.371Z,100248.22
2024-03-16T02:43:37.433Z,100252.19
2024-03-16T02:45:39.513Z,100244.03
2024-03-16T02:47:41.669Z,100253.97
2024-03-16T02:49:43.882Z,100252.34
2024-03-16T02:51:46.059Z,100250.47
2024-03-16T02:53:48.211Z,100250.47
2024-03-16T02:55:50.309Z,100258.06
2024-03-16T02:57:52.431Z,100260.50
2024-03-16T02:59:54.611Z,100258.72
2024-03-16T03:01:58.683Z,100264.81
2024-03-16T03:04:01.011Z,100265.50
2024-03-16T03:06:04.940Z,100261.66
2024-03-16T03:08:07.132Z,100260.84
2024-03-16T03:10:10.122Z,100265.41
2024-03-16T03:12:12.478Z,100260.03
2024-03-16T03:14:18.279Z,100260.03
2024-03-16T03:16:20.549Z,100267.84
2024-03-16T03:18:25.635Z,100270.88
2024-03-16T03:20:27.839Z,100269.47
2024-03-16T03:22:29.875Z,100271.81
2024-03-16T03:24:32.590Z,100271.84
2024-03-16T03:26:35.164Z,100270.28
2024-03-16T03:28:37.630Z,100281.06
2024-03-16T03:30:39.783Z,100280.34
2024-03-16T03:32:41.871Z,100275.88
2024-03-16T03:34:44.064Z,100274.34
2024-03-16T03:36:46.361Z,100277.38
2024-03-16T03:38:49.238Z,100273.97
2024-03-16T03:40:51.390Z,100270.78
2024-03-16T03:42:57.091Z,100270.59
2024-03-16T03:45:12.054Z,100269.28
2024-03-16T03:47:14.212Z,100270.09
2024-03-16T03:49:27.456Z,100273.84
2024-03-16T03:51:29.823Z,100284.00
2024-03-16T03:53:32.170Z,100286.34
2024-03-16T03:55:34.305Z,100292.53
2024-03-16T03:57:36.450Z,100285.28
2024-03-16T03:59:38.578Z,100290.19
2024-03-16T04:01:40.719Z,100285.88
2024-03-16T04:03:42.814Z,100290.28
2024-03-16T04:05:45.006Z,100285.25
2024-03-16T04:07:47.339Z,100281.84
2024-03-16T04:09:50.420Z,100282.69
2024-03-16T04:11:52.599Z,100277.91
2024-03-16T04:13:54.674Z,100282.78
2024-03-16T04:15:56.807Z,100281.25
2024-03-16T04:17:58.929Z,100276.69
2024-03-16T04:20:01.052Z,100277.84
2024-03-16T04:22:03.193Z,100274.66
2024-03-16T04:24:05.630Z,100268.00
2024-03-16T04:26:07.968Z,100264.81
2024-03-16T04:28:11.105Z,100272.88
2024-03-16T04:30:13.895Z,100277.22
2024-03-16T04:32:15.983Z,100278.84
2024-03-16T04:34:18.204Z,100280.22
2024-03-16T04:36:20.309Z,100287.00
2024-03-16T04:38:22.699Z,100277.63
2024-03-16T04:40:24.824Z,100272.84
2024-03-16T04:42:26.947Z,100280.41
2024-03-16T04:44:29.560Z,100279.34
2024-03-16T04:46:34.621Z,100280.75
2024-03-16T04:48:36.836Z,100281.31
2024-03-16T04:50:39.009Z,100285.63
2024-03-16T04:52:41.042Z,100281.66
2024-03-16T04:54:43.116Z,100285.16
2024-03-16T04:56:45.253Z,100284.09
2024-03-16T04:58:47.345Z,100289.47
2024-03-16T05:00:49.467Z,100282.22
2024-03-16T05:02:51.689Z,100282.81
2024-03-16T05:04:55.938Z,100287.94
2024-03-16T05:06:59.000Z,100292.81
2024-03-16T05:09:06.485Z,100285.34
2024-03-16T05:11:08.845Z,100299.09
2024-03-16T05:13:11.141Z,100291.88
2024-03-16T05:15:13.378Z,100288.31
2024-03-16T05:17:15.481Z,100294.56
2024-03-16T05:19:17.684Z,100292.41
2024-03-16T05:21:20.451Z,100288.41
2024-03-16T05:23:22.450Z,100289.00
2024-03-16T05:25:24.496Z,100284.19
2024-03-16T05:27:26.573Z,100289.91
2024-03-16T05:29:28.594Z,100286.41
2024-03-16T05:31:33.296Z,100282.66
2024-03-16T05:33:35.718Z,100293.75
2024-03-16T05:35:41.931Z,100288.09
2024-03-16T05:37:44.104Z,100289.72
2024-03-16T05:39:46.291Z,100293.78
2024-03-16T05:41:48.377Z,100301.66
2024-03-16T05:43:52.620Z,100299.75
2024-03-16T05:45:54.855Z,100299.03
2024-03-16T05:47:57.074Z,100311.97
2024-03-16T05:49:59.190Z,100304.25
2024-03-16T05:52:01.350Z,100304.81
2024-03-16T05:54:05.602Z,100316.16
2024-03-16T05:56:07.708Z,100307.56
2024-03-16T05:58:10.156Z,100306.50
2024-03-16T06:00:16.045Z,100307.56
2024-03-16T06:02:18.181Z,100308.72
2024-03-16T06:04:21.268Z,100300.66
2024-03-16T06:06:23.324Z,100303.66
2024-03-16T06:08:25.510Z,100300.97
2024-03-16T06:10:27.697Z,100295.34
2024-03-16T06:12:32.336Z,100298.03
2024-03-16T06:14:35.151Z,100307.72
2024-03-16T06:16:38.716Z,100310.97
2024-03-16T06:18:48.278Z,100301.34
2024-03-16T06:20:50.595Z,100304.38
2024-03-16T06:22:52.782Z,100303.31
2024-03-16T06:24:54.949Z,100329.97
2024-03-16T06:27:02.046Z,100318.97
2024-03-16T06:29:09.884Z,100317.66
2024-03-16T06:31:12.561Z,100316.59
2024-03-16T06:33:22.682Z,100314.72
2024-03-16T06:35:24.778Z,100324.66
2024-03-16T06:37:26.922Z,100319.28
2024-03-16T06:39:29.115Z,100325.56
2024-03-16T06:41:31.255Z,100326.94
2024-03-16T06:43:33.823Z,100310.22
2024-03-16T06:45:36.052Z,100314.38
2024-03-16T06:47:38.181Z,100313.38
2024-03-16T06:49:40.310Z,100325.59
2024-03-16T06:51:42.484Z,100325.66
2024-03-16T06:53:44.574Z,100326.84
2024-03-16T06:55:51.654Z,100332.06
2024-03-16T06:57:53.729Z,100340.03
2024-03-16T06:59:55.915Z,100330.13
2024-03-16T07:01:58.061Z,100344.00
2024-03-16T07:04:00.315Z,100329.56
2024-03-16T07:06:03.544Z,100338.56
2024-03-16T07:08:07.035Z,100339.56
2024-03-16T07:10:09.672Z,100320.00
2024-03-16T07:12:11.717Z,100334.69
2024-03-16T07:14:14.309Z,100335.59
2024-03-16T07:16:17.104Z,100331.09
2024-03-16T07:18:19.426Z,100337.94
2024-03-16T07:20:21.521Z,100337.94
2024-03-16T07:22:23.631Z,100332.03
2024-03-16T07:24:25.702Z,100338.88
2024-03-16T07:26:29.467Z,100342.16
2024-03-16T07:28:34.125Z,100352.72
2024-03-16T07:30:37.936Z,100332.44
2024-03-16T07:32:40.181Z,100335.94
2024-03-16T07:34:42.375Z,100355.34
2024-03-16T07:36:44.511Z,100356.91
2024-03-16T07:38:46.645Z,100358.03
2024-03-16T07:40:48.865Z,100353.72
2024-03-16T07:42:51.807Z,100356.41
2024-03-16T07:44:53.868Z,100342.38
2024-03-16T07:46:55.928Z,100352.09
2024-03-16T07:48:58.126Z,100348.03
2024-03-16T07:51:05.494Z,100355.28
2024-03-16T07:53:07.581Z,100352.09
2024-03-16T07:55:09.988Z,100352.91
2024-03-16T07:57:12.168Z,100359.66
2024-03-16T07:59:14.844Z,100349.16
2024-03-16T08:01:21.520Z,100345.91
2024-03-16T08:03:23.838Z,100355.06
2024-03-16T08:05:25.967Z,100371.81
2024-03-16T08:07:28.024Z,100385.03
2024-03-16T08:09:31.792Z,100366.72
2024-03-16T08:11:34.894Z,100359.25
2024-03-16T08:13:37.741Z,100369.13
2024-03-16T08:15:40.753Z,100353.47
2024-03-16T08:17:42.968Z,100340.59
2024-03-16T08:19:45.112Z,100358.78
2024-03-16T08:21:50.247Z,100349.09
2024-03-16T08:23:55.516Z,100347.75
2024-03-16T08:25:57.822Z,100354.31
2024-03-16T08:28:00.137Z,100357.56
2024-03-16T08:30:02.328Z,100361.34
2024-03-16T08:32:06.172Z,100355.41
2024-03-16T08:34:10.482Z,100360.31
2024-03-16T08:36:12.633Z,100360.31
2024-03-16T08:38:14.704Z,100359.75
2024-03-16T08:40:17.490Z,100362.22
2024-03-16T08:42:19.725Z,100366.50
2024-03-16T08:44:21.865Z,100360.28
2024-03-16T08:46:27.394Z,100370.88
2024-03-16T08:48:30.068Z,100371.72
2024-03-16T08:50:32.311Z,100366.34
2024-03-16T08:52:37.983Z,100357.66
2024-03-16T08:54:40.887Z,100351.16
2024-03-16T08:56:43.020Z,100364.97
2024-03-16T08:58:47.524Z,100351.94
2024-03-16T09:00:50.149Z,100352.75
2024-03-16T09:02:53.518Z,100354.63
2024-03-16T09:04:58.648Z,100367.38
2024-03-16T09:07:00.787Z,100360.06
2024-03-16T09:09:04.463Z,100380.34
2024-03-16T09:11:06.722Z,100346.69
2024-03-16T09:13:09.166Z,100374.56
2024-03-16T09:15:12.573Z,100344.69
2024-03-16T09:17:14.747Z,100345.19
2024-03-16T09:19:17.399Z,100349.78
2024-03-16T09:21:19.418Z,100351.63
2024-03-16T09:23:21.619Z,100358.38
2024-03-16T09:25:24.036Z,100369.78
2024-03-16T09:27:26.225Z,100355.47
2024-03-16T09:29:28.320Z,100354.91
2024-03-16T09:31:30.405Z,100367.56
2024-03-16T09:33:33.735Z,100350.06
2024-03-16T09:35:35.808Z,100364.31
2024-03-16T09:37:38.272Z,100358.94
2024-03-16T09:39:40.459Z,100348.94
2024-03-16T09:41:42.692Z,100366.78
